Time;durP1;ratioP1;P1;durP2;ratioP2;P2;SDS_P1;SDS_P2;PMS_P1;PMS_P2;Temp;Humidity;BMP_temperature;BMP_pressure;BME280_temperature;BME280_humidity;BME280_pressure;Samples;Min_cycle;Max_cycle;Signal;HPM_P1;HPM_P2
2021/10/26 00:01:49;;;;;;;32.50;14.27;;;;;;;;;;6181675;23;20187;-90
2021/10/26 00:04:54;;;;;;;33.67;13.70;;;;;;;;;;6181222;23;20232;-90
2021/10/26 00:08:00;;;;;;;32.03;13.73;;;;;;;;;;6180074;23;20216;-89
2021/10/26 00:11:06;;;;;;;27.20;13.43;;;;;;;;;;6180992;23;20248;-89
2021/10/26 00:14:12;;;;;;;29.70;13.30;;;;;;;;;;6181910;23;20259;-89
2021/10/26 00:17:18;;;;;;;32.33;14.60;;;;;;;;;;6181443;23;20183;-90
2021/10/26 00:20:27;;;;;;;36.17;14.47;;;;;;;;;;6181091;23;20176;-90
2021/10/26 00:23:33;;;;;;;32.77;15.53;;;;;;;;;;6182853;23;20196;-90
2021/10/26 00:26:37;;;;;;;30.67;13.90;;;;;;;;;;6181546;23;20175;-90
2021/10/26 00:29:44;;;;;;;30.27;13.53;;;;;;;;;;6179775;23;20611;-90
2021/10/26 00:32:49;;;;;;;31.67;14.23;;;;;;;;;;6182670;23;20172;-90
2021/10/26 00:35:54;;;;;;;32.67;14.23;;;;;;;;;;6182753;23;20167;-90
2021/10/26 00:39:00;;;;;;;36.50;13.87;;;;;;;;;;6180201;23;20204;-90
2021/10/26 00:42:07;;;;;;;28.97;12.83;;;;;;;;;;6182817;23;20167;-90
2021/10/26 00:45:13;;;;;;;30.17;13.80;;;;;;;;;;6182252;23;20267;-91
2021/10/26 00:48:19;;;;;;;35.30;14.20;;;;;;;;;;6183473;23;20172;-91
2021/10/26 00:51:28;;;;;;;33.43;13.90;;;;;;;;;;6182714;23;20531;-91
2021/10/26 00:54:35;;;;;;;29.37;13.30;;;;;;;;;;6181587;23;20214;-90
2021/10/26 00:57:46;;;;;;;29.57;12.33;;;;;;;;;;6201161;23;20207;-90
2021/10/26 01:00:53;;;;;;;30.87;13.20;;;;;;;;;;6182702;23;20506;-89
2021/10/26 01:03:58;;;;;;;33.30;13.60;;;;;;;;;;6184683;23;20179;-90
2021/10/26 01:07:05;;;;;;;27.60;13.10;;;;;;;;;;6186306;23;20187;-90
2021/10/26 01:10:11;;;;;;;29.53;13.63;;;;;;;;;;6184928;23;20195;-88
2021/10/26 01:13:19;;;;;;;29.70;13.47;;;;;;;;;;6183660;23;20191;-90
2021/10/26 01:16:26;;;;;;;53.27;13.20;;;;;;;;;;6185095;23;20175;-89
2021/10/26 01:19:43;;;;;;;34.60;14.33;;;;;;;;;;6184517;23;20176;-89
2021/10/26 01:22:48;;;;;;;29.13;12.63;;;;;;;;;;6185663;23;20172;-89
2021/10/26 01:25:57;;;;;;;34.37;12.67;;;;;;;;;;6185397;23;20172;-91
2021/10/26 01:29:03;;;;;;;30.03;13.17;;;;;;;;;;6183981;23;20172;-90
2021/10/26 01:32:14;;;;;;;25.73;12.03;;;;;;;;;;6183890;23;20196;-90
2021/10/26 01:35:23;;;;;;;30.27;13.80;;;;;;;;;;6184622;23;20172;-91
2021/10/26 01:38:28;;;;;;;29.47;13.00;;;;;;;;;;6202809;23;20311;-90
2021/10/26 01:41:33;;;;;;;29.50;12.30;;;;;;;;;;6184386;23;20204;-90
2021/10/26 01:44:40;;;;;;;36.17;13.27;;;;;;;;;;6183456;23;20247;-91
2021/10/26 01:48:00;;;;;;;39.40;13.17;;;;;;;;;;6185904;23;20176;-90
2021/10/26 01:51:07;;;;;;;37.73;14.20;;;;;;;;;;6184188;23;20196;-90
2021/10/26 01:54:13;;;;;;;25.37;12.17;;;;;;;;;;6184895;23;20153;-91
2021/10/26 01:57:23;;;;;;;26.17;12.50;;;;;;;;;;6183944;23;20180;-89
2021/10/26 02:00:40;;;;;;;22.33;11.80;;;;;;;;;;6183141;23;20168;-90
2021/10/26 02:03:46;;;;;;;26.50;11.27;;;;;;;;;;6183874;23;20172;-90
2021/10/26 02:06:53;;;;;;;24.93;12.07;;;;;;;;;;6184542;23;20188;-89
2021/10/26 02:09:59;;;;;;;41.93;12.03;;;;;;;;;;6186021;23;20268;-89
2021/10/26 02:13:04;;;;;;;34.00;12.47;;;;;;;;;;6183686;23;20191;-89
2021/10/26 02:16:09;;;;;;;26.30;11.63;;;;;;;;;;6184966;23;20241;-89
2021/10/26 02:19:14;;;;;;;27.30;11.97;;;;;;;;;;6184398;23;20183;-89
2021/10/26 02:22:22;;;;;;;20.07;10.70;;;;;;;;;;6184504;23;20238;-90
2021/10/26 02:25:30;;;;;;;24.43;11.30;;;;;;;;;;6183233;23;20167;-90
2021/10/26 02:28:36;;;;;;;25.20;12.50;;;;;;;;;;6185194;23;20241;-89
2021/10/26 02:31:41;;;;;;;24.07;11.43;;;;;;;;;;6200539;23;20191;-89
2021/10/26 02:34:47;;;;;;;29.03;11.87;;;;;;;;;;6184857;23;20207;-89
2021/10/26 02:37:54;;;;;;;28.53;12.47;;;;;;;;;;6183824;23;20251;-91
2021/10/26 02:40:59;;;;;;;26.37;11.73;;;;;;;;;;6182795;23;20635;-89
2021/10/26 02:44:04;;;;;;;25.97;11.97;;;;;;;;;;6183970;23;20251;-89
2021/10/26 02:47:09;;;;;;;24.03;11.83;;;;;;;;;;6200440;23;20216;-89
2021/10/26 02:50:16;;;;;;;29.27;11.60;;;;;;;;;;6183762;23;20234;-90
2021/10/26 02:53:24;;;;;;;27.43;12.07;;;;;;;;;;6184262;23;20171;-88
2021/10/26 02:56:29;;;;;;;27.93;12.07;;;;;;;;;;6184106;23;20191;-90
2021/10/26 02:59:35;;;;;;;24.43;12.70;;;;;;;;;;6201710;23;20168;-90
2021/10/26 03:02:41;;;;;;;24.70;12.20;;;;;;;;;;6201626;23;20237;-90
2021/10/26 03:06:02;;;;;;;29.53;12.93;;;;;;;;;;6183214;23;20168;-89
2021/10/26 03:09:09;;;;;;;31.90;13.07;;;;;;;;;;6183375;23;20176;-90
2021/10/26 03:12:14;;;;;;;28.33;12.90;;;;;;;;;;6184115;23;20195;-90
2021/10/26 03:15:20;;;;;;;32.00;13.80;;;;;;;;;;6183729;23;20208;-90
2021/10/26 03:18:25;;;;;;;29.10;13.53;;;;;;;;;;6183480;23;20283;-90
2021/10/26 03:21:31;;;;;;;30.67;13.97;;;;;;;;;;6184408;23;20238;-90
2021/10/26 03:24:38;;;;;;;36.87;13.90;;;;;;;;;;6183949;23;20259;-91
2021/10/26 03:27:44;;;;;;;30.70;13.87;;;;;;;;;;6183704;23;20247;-90
2021/10/26 03:30:52;;;;;;;29.93;13.90;;;;;;;;;;6201181;23;20248;-92
2021/10/26 03:34:21;;;;;;;29.87;13.30;;;;;;;;;;6183263;23;20229;-89
2021/10/26 03:37:26;;;;;;;29.27;11.90;;;;;;;;;;6179491;23;20171;-89
2021/10/26 03:40:32;;;;;;;26.77;12.27;;;;;;;;;;6177242;23;20171;-90
2021/10/26 03:43:38;;;;;;;28.83;11.90;;;;;;;;;;6175693;23;20172;-89
2021/10/26 03:46:45;;;;;;;22.67;11.37;;;;;;;;;;6178366;23;20164;-89
2021/10/26 03:49:50;;;;;;;26.03;12.40;;;;;;;;;;6194223;23;20167;-91
2021/10/26 03:52:56;;;;;;;27.83;12.43;;;;;;;;;;6177730;23;20216;-90
2021/10/26 03:56:03;;;;;;;28.20;13.10;;;;;;;;;;6177041;23;20168;-89
2021/10/26 03:59:09;;;;;;;29.80;12.93;;;;;;;;;;6176253;23;20172;-90
2021/10/26 04:02:22;;;;;;;27.43;12.50;;;;;;;;;;6175416;23;20169;-89
2021/10/26 04:05:38;;;;;;;22.37;11.60;;;;;;;;;;6177713;23;20236;-90
2021/10/26 04:08:52;;;;;;;25.87;11.73;;;;;;;;;;6180295;23;20204;-90
2021/10/26 04:12:18;;;;;;;23.00;12.00;;;;;;;;;;6181092;23;20207;-89
2021/10/26 04:15:26;;;;;;;26.83;12.30;;;;;;;;;;6179015;23;20255;-90
2021/10/26 04:18:32;;;;;;;24.90;11.77;;;;;;;;;;6181529;23;20171;-91
2021/10/26 04:21:37;;;;;;;23.37;11.80;;;;;;;;;;6198989;23;20258;-91
2021/10/26 04:24:43;;;;;;;33.00;13.70;;;;;;;;;;6182232;23;20168;-90
2021/10/26 04:27:51;;;;;;;29.80;12.97;;;;;;;;;;6184031;23;20304;-91
2021/10/26 04:30:59;;;;;;;29.63;14.13;;;;;;;;;;6182870;23;20175;-91
2021/10/26 04:34:04;;;;;;;43.17;14.87;;;;;;;;;;6181483;23;20226;-90
2021/10/26 04:37:10;;;;;;;40.73;14.43;;;;;;;;;;6181933;23;20191;-92
2021/10/26 04:40:15;;;;;;;42.13;13.77;;;;;;;;;;6181415;23;20243;-90
2021/10/26 04:43:22;;;;;;;34.90;15.00;;;;;;;;;;6179929;23;20163;-90
2021/10/26 04:46:27;;;;;;;32.13;14.77;;;;;;;;;;6184199;23;20180;-91
2021/10/26 04:49:32;;;;;;;31.10;14.13;;;;;;;;;;6184763;23;20176;-89
2021/10/26 04:52:38;;;;;;;32.47;14.57;;;;;;;;;;6183248;23;20191;-91
2021/10/26 04:55:44;;;;;;;30.57;14.37;;;;;;;;;;6181253;23;20187;-89
2021/10/26 04:58:51;;;;;;;30.33;14.00;;;;;;;;;;6183270;23;20241;-91
2021/10/26 05:01:59;;;;;;;32.37;14.97;;;;;;;;;;6183818;23;20167;-91
2021/10/26 05:05:05;;;;;;;31.00;13.47;;;;;;;;;;6183345;23;20171;-89
2021/10/26 05:08:10;;;;;;;35.47;14.67;;;;;;;;;;6183811;23;20167;-90
2021/10/26 05:11:16;;;;;;;34.57;14.90;;;;;;;;;;6182429;23;20191;-90
2021/10/26 05:14:23;;;;;;;35.97;14.57;;;;;;;;;;6182368;23;20172;-90
2021/10/26 05:17:56;;;;;;;36.23;15.07;;;;;;;;;;6189985;23;20188;-89
2021/10/26 05:21:24;;;;;;;31.73;14.63;;;;;;;;;;6200628;23;20195;-91
2021/10/26 05:24:58;;;;;;;49.03;14.30;;;;;;;;;;6198979;23;20175;-89
2021/10/26 05:28:11;;;;;;;44.90;21.27;;;;;;;;;;6183039;23;20502;-90
2021/10/26 05:31:18;;;;;;;32.27;12.33;;;;;;;;;;6183079;23;20243;-91
2021/10/26 05:34:24;;;;;;;38.67;12.70;;;;;;;;;;6182270;23;20187;-90
2021/10/26 05:37:29;;;;;;;29.83;13.23;;;;;;;;;;6182596;23;20216;-90
2021/10/26 05:40:36;;;;;;;28.43;13.60;;;;;;;;;;6182428;23;20243;-90
2021/10/26 05:43:43;;;;;;;26.27;13.17;;;;;;;;;;6184488;23;20164;-90
2021/10/26 05:46:50;;;;;;;27.43;12.73;;;;;;;;;;6181085;23;20172;-89
2021/10/26 05:49:55;;;;;;;24.13;11.57;;;;;;;;;;6181963;23;20169;-90
2021/10/26 05:53:00;;;;;;;31.53;13.10;;;;;;;;;;6180335;23;20199;-90
2021/10/26 05:56:06;;;;;;;40.47;13.47;;;;;;;;;;6178512;23;20168;-88
2021/10/26 05:59:11;;;;;;;55.53;14.07;;;;;;;;;;6179336;23;20176;-90
2021/10/26 06:02:18;;;;;;;25.97;12.53;;;;;;;;;;6179734;23;20203;-90
2021/10/26 06:09:17;;;;;;;29.77;14.57;;;;;;;;;;6198558;23;20164;-89
2021/10/26 06:12:27;;;;;;;27.40;12.77;;;;;;;;;;6179499;23;20206;-89
2021/10/26 06:19:25;;;;;;;30.67;12.93;;;;;;;;;;6196915;23;20631;-89
2021/10/26 06:22:31;;;;;;;36.87;12.37;;;;;;;;;;6180832;23;20167;-90
2021/10/26 06:25:37;;;;;;;67.07;14.20;;;;;;;;;;6180113;23;20171;-90
2021/10/26 06:29:15;;;;;;;39.87;12.90;;;;;;;;;;6204026;23;20253;-90
2021/10/26 06:32:41;;;;;;;37.80;13.13;;;;;;;;;;6205043;23;20195;-90
2021/10/26 06:39:27;;;;;;;41.20;13.87;;;;;;;;;;6201819;23;20184;-89
2021/10/26 06:46:11;;;;;;;41.13;14.13;;;;;;;;;;6205192;23;20220;-89
2021/10/26 06:49:36;;;;;;;52.13;15.03;;;;;;;;;;6205198;23;20176;-90
2021/10/26 06:53:04;;;;;;;46.10;13.73;;;;;;;;;;6203486;23;20195;-90
2021/10/26 06:56:29;;;;;;;47.50;13.60;;;;;;;;;;6202493;23;20176;-89
2021/10/26 06:59:54;;;;;;;61.10;13.97;;;;;;;;;;6202646;23;20283;-89
2021/10/26 07:10:50;;;;;;;56.37;15.67;;;;;;;;;;6186994;23;20196;-90
2021/10/26 07:17:21;;;;;;;40.13;14.47;;;;;;;;;;6182250;23;20176;-90
2021/10/26 07:20:27;;;;;;;35.20;14.90;;;;;;;;;;6180451;23;20168;-89
2021/10/26 07:23:52;;;;;;;38.27;14.93;;;;;;;;;;6177679;23;20191;-89
2021/10/26 07:27:21;;;;;;;44.57;19.83;;;;;;;;;;6181460;23;20175;-91
2021/10/26 07:30:28;;;;;;;31.57;15.17;;;;;;;;;;6196717;23;20171;-90
2021/10/26 07:33:35;;;;;;;80.77;14.27;;;;;;;;;;6184000;23;20539;-89
2021/10/26 07:36:45;;;;;;;31.37;13.03;;;;;;;;;;6183942;23;20172;-90
2021/10/26 07:39:52;;;;;;;35.77;14.20;;;;;;;;;;6187300;23;20260;-89
2021/10/26 07:43:00;;;;;;;30.33;13.40;;;;;;;;;;6184208;23;20175;-88
2021/10/26 07:46:24;;;;;;;36.20;14.83;;;;;;;;;;6200807;23;20211;-90
2021/10/26 07:49:30;;;;;;;47.37;16.53;;;;;;;;;;6182805;23;20292;-90
2021/10/26 07:52:36;;;;;;;67.97;16.23;;;;;;;;;;6183508;23;20194;-90
2021/10/26 07:56:01;;;;;;;36.73;17.00;;;;;;;;;;6199741;23;20176;-90
2021/10/26 07:59:12;;;;;;;111.17;17.17;;;;;;;;;;6204334;23;20152;-90
2021/10/26 08:02:19;;;;;;;70.40;17.63;;;;;;;;;;6184482;23;20212;-90
2021/10/26 08:06:00;;;;;;;62.60;16.17;;;;;;;;;;6116356;23;20217;-89
2021/10/26 08:09:05;;;;;;;70.07;17.53;;;;;;;;;;6183813;23;20240;-90
2021/10/26 08:12:10;;;;;;;35.13;16.80;;;;;;;;;;6184752;23;20267;-91
2021/10/26 08:15:17;;;;;;;32.00;15.30;;;;;;;;;;6184390;23;20249;-89
2021/10/26 08:18:24;;;;;;;30.67;15.67;;;;;;;;;;6186801;23;20238;-90
2021/10/26 08:21:30;;;;;;;34.43;15.87;;;;;;;;;;6186591;23;20168;-90
2021/10/26 08:24:37;;;;;;;37.07;16.03;;;;;;;;;;6185967;23;20167;-88
2021/10/26 08:27:43;;;;;;;37.40;15.63;;;;;;;;;;6186949;23;20160;-90
2021/10/26 08:30:53;;;;;;;31.90;15.00;;;;;;;;;;6185039;23;20175;-89
2021/10/26 08:54:32;;;;;;;35.77;16.50;;;;;;;;;;6189610;23;20155;-88
2021/10/26 09:04:45;;;;;;;44.60;21.10;;;;;;;;;;6208269;23;20160;-88
2021/10/26 09:08:05;;;;;;;36.27;17.87;;;;;;;;;;6184321;23;20172;-89
2021/10/26 17:59:17;;;;;;;41.90;19.90;;;;;;;;;;6182270;22;1329108;-89
2021/10/26 18:02:23;;;;;;;57.50;22.73;;;;;;;;;;6230705;23;20191;-90
2021/10/26 18:05:29;;;;;;;293.57;101.20;;;;;;;;;;6231764;23;20183;-91
2021/10/26 18:08:37;;;;;;;209.53;77.83;;;;;;;;;;6231243;23;20160;-92
2021/10/26 18:11:43;;;;;;;84.07;33.53;;;;;;;;;;6230744;23;20174;-92
2021/10/26 18:14:50;;;;;;;76.70;29.73;;;;;;;;;;6230494;23;20302;-91
2021/10/26 18:17:55;;;;;;;103.10;46.23;;;;;;;;;;6228628;23;20175;-92
2021/10/26 18:21:01;;;;;;;58.57;25.20;;;;;;;;;;6228501;23;20195;-90
2021/10/26 18:24:07;;;;;;;48.20;22.93;;;;;;;;;;6227943;23;20250;-91
2021/10/26 18:27:13;;;;;;;48.43;20.70;;;;;;;;;;6229917;23;20195;-91
2021/10/26 18:30:20;;;;;;;45.30;20.60;;;;;;;;;;6228785;23;20174;-91
2021/10/26 18:33:27;;;;;;;45.50;21.60;;;;;;;;;;6227905;23;20170;-90
2021/10/26 18:36:32;;;;;;;47.20;21.33;;;;;;;;;;6228265;23;20190;-91
2021/10/26 18:39:37;;;;;;;50.60;21.50;;;;;;;;;;6228822;23;20195;-91
2021/10/26 18:42:48;;;;;;;51.80;22.37;;;;;;;;;;6231242;23;20182;-90
2021/10/26 18:46:03;;;;;;;48.80;21.53;;;;;;;;;;6232197;23;20175;-91
2021/10/26 18:49:09;;;;;;;47.87;20.83;;;;;;;;;;6232155;23;20241;-90
2021/10/26 18:52:14;;;;;;;52.00;22.27;;;;;;;;;;6234090;23;20695;-91
2021/10/26 18:55:20;;;;;;;54.23;22.23;;;;;;;;;;6238020;23;20231;-90
2021/10/26 18:58:28;;;;;;;42.90;21.17;;;;;;;;;;6234015;23;20238;-91
2021/10/26 19:01:36;;;;;;;41.97;20.33;;;;;;;;;;6237057;23;20172;-90
2021/10/26 19:04:42;;;;;;;44.57;20.30;;;;;;;;;;6236901;23;20242;-91
2021/10/26 19:07:48;;;;;;;41.50;20.43;;;;;;;;;;6233579;23;20179;-90
2021/10/26 19:10:54;;;;;;;48.77;20.43;;;;;;;;;;6229744;23;20206;-90
2021/10/26 19:14:02;;;;;;;48.10;19.97;;;;;;;;;;6231273;23;20155;-92
2021/10/26 19:17:09;;;;;;;43.37;20.23;;;;;;;;;;6230871;23;20628;-90
2021/10/26 19:20:17;;;;;;;44.03;20.07;;;;;;;;;;6232695;23;20298;-89
2021/10/26 19:23:22;;;;;;;47.27;19.60;;;;;;;;;;6230109;23;20171;-89
2021/10/26 19:26:29;;;;;;;43.30;20.10;;;;;;;;;;6233599;23;20167;-91
2021/10/26 19:29:36;;;;;;;47.50;20.73;;;;;;;;;;6232542;23;20162;-91
2021/10/26 19:32:43;;;;;;;44.37;19.87;;;;;;;;;;6231527;23;20214;-90
2021/10/26 19:35:50;;;;;;;48.00;21.67;;;;;;;;;;6231658;23;20187;-91
2021/10/26 19:38:56;;;;;;;47.87;21.00;;;;;;;;;;6231559;23;20213;-91
2021/10/26 19:42:03;;;;;;;46.23;21.33;;;;;;;;;;6230850;23;20155;-91
2021/10/26 19:45:10;;;;;;;45.63;20.07;;;;;;;;;;6230024;23;20549;-90
2021/10/26 19:48:18;;;;;;;40.00;18.93;;;;;;;;;;6230488;23;20583;-90
2021/10/26 19:51:24;;;;;;;41.60;19.07;;;;;;;;;;6235388;23;20175;-90
2021/10/26 19:54:29;;;;;;;39.40;17.97;;;;;;;;;;6231487;23;20251;-90
2021/10/26 19:57:34;;;;;;;44.47;19.27;;;;;;;;;;6232445;23;20230;-90
2021/10/26 20:00:39;;;;;;;41.20;18.13;;;;;;;;;;6231173;23;20671;-90
2021/10/26 20:03:47;;;;;;;42.40;19.63;;;;;;;;;;6231359;23;20175;-90
2021/10/26 20:06:53;;;;;;;49.60;21.40;;;;;;;;;;6231390;23;20186;-90
2021/10/26 20:09:59;;;;;;;39.00;18.97;;;;;;;;;;6231411;23;20166;-91
2021/10/26 20:13:04;;;;;;;40.33;19.53;;;;;;;;;;6231376;23;20163;-89
2021/10/26 20:16:36;;;;;;;45.07;20.03;;;;;;;;;;6230237;23;20219;-91
2021/10/26 20:19:47;;;;;;;47.83;20.00;;;;;;;;;;6232092;23;20175;-91
2021/10/26 20:23:04;;;;;;;66.93;29.37;;;;;;;;;;6232564;23;20246;-91
2021/10/26 20:26:12;;;;;;;47.37;21.20;;;;;;;;;;6230807;23;20255;-91
2021/10/26 20:29:18;;;;;;;50.33;22.13;;;;;;;;;;6230605;23;20202;-89
2021/10/26 20:32:24;;;;;;;48.97;20.70;;;;;;;;;;6231734;23;20166;-91
2021/10/26 20:35:31;;;;;;;45.07;20.53;;;;;;;;;;6231858;23;20186;-91
2021/10/26 20:38:37;;;;;;;45.13;20.67;;;;;;;;;;6230813;23;20243;-91
2021/10/26 20:41:45;;;;;;;45.23;19.90;;;;;;;;;;6233736;23;20194;-90
2021/10/26 20:44:51;;;;;;;52.77;22.00;;;;;;;;;;6231123;23;20175;-91
2021/10/26 20:47:57;;;;;;;66.37;29.97;;;;;;;;;;6231612;23;20618;-90
2021/10/26 20:51:11;;;;;;;38.77;18.73;;;;;;;;;;6231271;23;20167;-92
2021/10/26 20:54:18;;;;;;;44.13;20.57;;;;;;;;;;6230614;23;20175;-91
2021/10/26 20:57:24;;;;;;;51.77;22.67;;;;;;;;;;6232264;23;20175;-91
2021/10/26 21:00:30;;;;;;;51.93;23.63;;;;;;;;;;6231823;23;20217;-88
2021/10/26 21:03:36;;;;;;;49.47;21.53;;;;;;;;;;6230468;23;20228;-90
2021/10/26 21:06:43;;;;;;;51.73;21.90;;;;;;;;;;6231512;23;20154;-89
2021/10/26 21:09:48;;;;;;;49.27;20.97;;;;;;;;;;6232141;23;20166;-89
2021/10/26 21:12:54;;;;;;;48.23;21.47;;;;;;;;;;6232810;23;20171;-91
2021/10/26 21:20:20;;;;;;;39.80;18.80;;;;;;;;;;6232620;23;20206;-90
2021/10/26 21:23:27;;;;;;;46.33;19.33;;;;;;;;;;6229800;23;20191;-91
2021/10/26 21:26:33;;;;;;;45.10;20.30;;;;;;;;;;6230468;23;20171;-89
2021/10/26 21:29:38;;;;;;;43.43;19.10;;;;;;;;;;6231187;23;20190;-90
2021/10/26 21:32:44;;;;;;;45.30;18.47;;;;;;;;;;6233615;23;20209;-90
2021/10/26 21:35:52;;;;;;;48.13;19.50;;;;;;;;;;6231729;23;20237;-90
2021/10/26 21:38:59;;;;;;;42.33;19.70;;;;;;;;;;6232068;23;20220;-90
2021/10/26 21:42:06;;;;;;;45.70;18.77;;;;;;;;;;6231830;23;20203;-90
2021/10/26 21:45:11;;;;;;;46.70;19.47;;;;;;;;;;6232548;23;20226;-90
2021/10/26 21:48:17;;;;;;;44.73;19.27;;;;;;;;;;6230787;23;20238;-91
2021/10/26 21:51:23;;;;;;;44.13;19.70;;;;;;;;;;6233632;23;20171;-90
2021/10/26 21:54:30;;;;;;;48.00;20.57;;;;;;;;;;6234586;23;20175;-90
2021/10/26 21:57:35;;;;;;;45.00;19.50;;;;;;;;;;6230286;23;20174;-89
2021/10/26 22:01:03;;;;;;;53.80;20.40;;;;;;;;;;6231557;23;20250;-90
2021/10/26 22:04:11;;;;;;;48.87;20.00;;;;;;;;;;6230025;23;20171;-90
2021/10/26 22:07:25;;;;;;;52.17;20.27;;;;;;;;;;6229802;23;20231;-90
2021/10/26 22:10:32;;;;;;;55.80;21.83;;;;;;;;;;6230501;23;20237;-90
2021/10/26 22:13:37;;;;;;;53.47;20.83;;;;;;;;;;6229728;23;20186;-91
2021/10/26 22:16:42;;;;;;;52.60;22.03;;;;;;;;;;6230273;23;20218;-90
2021/10/26 22:19:47;;;;;;;49.23;20.23;;;;;;;;;;6229046;23;20174;-91
2021/10/26 22:22:52;;;;;;;56.07;21.63;;;;;;;;;;6230935;23;20170;-90
2021/10/26 22:25:59;;;;;;;52.37;20.40;;;;;;;;;;6230889;23;20171;-91
2021/10/26 22:29:05;;;;;;;49.80;21.03;;;;;;;;;;6231669;23;20167;-90
2021/10/26 22:32:11;;;;;;;49.87;19.80;;;;;;;;;;6233688;23;20179;-91
2021/10/26 22:35:17;;;;;;;42.23;19.17;;;;;;;;;;6232297;23;20167;-91
2021/10/26 22:38:22;;;;;;;47.33;20.20;;;;;;;;;;6230576;23;20159;-90
2021/10/26 22:41:29;;;;;;;45.63;20.53;;;;;;;;;;6231092;23;20191;-90
2021/10/26 22:44:34;;;;;;;42.13;19.77;;;;;;;;;;6232088;23;20167;-92
2021/10/26 22:47:40;;;;;;;52.23;20.63;;;;;;;;;;6230115;23;20221;-90
2021/10/26 22:50:45;;;;;;;51.70;21.53;;;;;;;;;;6231000;23;20187;-91
2021/10/26 22:53:51;;;;;;;47.93;20.10;;;;;;;;;;6233413;23;20162;-90
2021/10/26 22:56:58;;;;;;;56.07;20.70;;;;;;;;;;6230668;23;20224;-89
2021/10/26 23:00:06;;;;;;;52.07;21.63;;;;;;;;;;6228698;23;20270;-91
2021/10/26 23:03:12;;;;;;;47.90;21.40;;;;;;;;;;6231190;23;20167;-90
2021/10/26 23:06:44;;;;;;;53.43;21.40;;;;;;;;;;6236153;23;20155;-90
2021/10/26 23:09:52;;;;;;;51.67;22.03;;;;;;;;;;6235551;23;20175;-92
2021/10/26 23:12:59;;;;;;;56.77;21.10;;;;;;;;;;6234020;23;20162;-92
2021/10/26 23:16:05;;;;;;;49.90;21.10;;;;;;;;;;6233327;23;20171;-91
2021/10/26 23:19:10;;;;;;;50.47;20.43;;;;;;;;;;6231472;23;20215;-88
2021/10/26 23:22:15;;;;;;;55.33;22.07;;;;;;;;;;6230063;23;20264;-92
2021/10/26 23:25:23;;;;;;;51.17;21.63;;;;;;;;;;6228724;23;20171;-89
2021/10/26 23:28:29;;;;;;;47.77;20.97;;;;;;;;;;6229928;23;20210;-92
2021/10/26 23:31:34;;;;;;;43.23;20.87;;;;;;;;;;6231483;23;20325;-91
2021/10/26 23:34:39;;;;;;;46.63;20.30;;;;;;;;;;6234028;23;20172;-92
2021/10/26 23:37:46;;;;;;;44.17;19.53;;;;;;;;;;6237234;23;20661;-90
2021/10/26 23:40:52;;;;;;;50.17;21.67;;;;;;;;;;6232937;23;20283;-88
2021/10/26 23:43:59;;;;;;;61.77;20.60;;;;;;;;;;6230301;23;20174;-90
2021/10/26 23:47:05;;;;;;;43.17;19.13;;;;;;;;;;6233192;23;20163;-88
2021/10/26 23:50:12;;;;;;;40.00;18.40;;;;;;;;;;6230963;23;20295;-91
2021/10/26 23:53:17;;;;;;;52.70;19.43;;;;;;;;;;6236715;23;20175;-92
2021/10/26 23:56:23;;;;;;;51.00;20.37;;;;;;;;;;6227329;23;20661;-91
2021/10/26 23:59:30;;;;;;;54.63;19.50;;;;;;;;;;6236105;23;20230;-90
